sensor_id;sensor_type;location;lat;lon;timestamp;temperature;humidity
7704;DHT22;3894;49.700;10.770;2023-03-01T00:01:25;-0.90;99.90
7704;DHT22;3894;49.700;10.770;2023-03-01T00:03:52;-0.90;99.90
7704;DHT22;3894;49.700;10.770;2023-03-01T00:06:18;-0.90;99.90
7704;DHT22;3894;49.700;10.770;2023-03-01T00:08:44;-1.00;99.90
7704;DHT22;3894;49.700;10.770;2023-03-01T00:11:17;-1.00;99.90
7704;DHT22;3894;49.700;10.770;2023-03-01T00:13:44;-1.00;99.90
7704;DHT22;3894;49.700;10.770;2023-03-01T00:16:16;-1.00;99.90
7704;DHT22;3894;49.700;10.770;2023-03-01T00:18:42;-1.00;99.90
7704;DHT22;3894;49.700;10.770;2023-03-01T00:21:07;-1.00;99.90
7704;DHT22;3894;49.700;10.770;2023-03-01T00:23:35;-1.00;99.90
7704;DHT22;3894;49.700;10.770;2023-03-01T00:26:01;-1.00;99.90
7704;DHT22;3894;49.700;10.770;2023-03-01T00:28:26;-1.00;99.90
7704;DHT22;3894;49.700;10.770;2023-03-01T00:30:52;-1.00;99.90
7704;DHT22;3894;49.700;10.770;2023-03-01T00:33:19;-1.00;99.90
7704;DHT22;3894;49.700;10.770;2023-03-01T00:35:45;-1.00;99.90
7704;DHT22;3894;49.700;10.770;2023-03-01T00:38:10;-1.00;99.90
7704;DHT22;3894;49.700;10.770;2023-03-01T00:40:36;-1.00;99.90
7704;DHT22;3894;49.700;10.770;2023-03-01T00:43:03;-1.00;99.90
7704;DHT22;3894;49.700;10.770;2023-03-01T00:45:28;-1.00;99.90
7704;DHT22;3894;49.700;10.770;2023-03-01T00:50:26;-1.10;99.90
7704;DHT22;3894;49.700;10.770;2023-03-01T00:52:57;-1.10;99.90
7704;DHT22;3894;49.700;10.770;2023-03-01T00:55:24;-1.10;99.90
7704;DHT22;3894;49.700;10.770;2023-03-01T00:57:55;-1.10;99.90
7704;DHT22;3894;49.700;10.770;2023-03-01T01:00:21;-1.10;99.90
7704;DHT22;3894;49.700;10.770;2023-03-01T01:02:47;-1.10;99.90
7704;DHT22;3894;49.700;10.770;2023-03-01T01:05:13;-1.10;99.90
7704;DHT22;3894;49.700;10.770;2023-03-01T01:07:39;-1.20;99.90
7704;DHT22;3894;49.700;10.770;2023-03-01T01:10:08;-1.20;99.90
7704;DHT22;3894;49.700;10.770;2023-03-01T01:12:38;-1.20;99.90
7704;DHT22;3894;49.700;10.770;2023-03-01T01:15:03;-1.20;99.90
7704;DHT22;3894;49.700;10.770;2023-03-01T01:17:29;-1.20;99.90
7704;DHT22;3894;49.700;10.770;2023-03-01T01:19:55;-1.20;99.90
7704;DHT22;3894;49.700;10.770;2023-03-01T01:22:20;-1.20;99.90
7704;DHT22;3894;49.700;10.770;2023-03-01T01:24:46;-1.20;99.90
7704;DHT22;3894;49.700;10.770;2023-03-01T01:27:15;-1.20;99.90
7704;DHT22;3894;49.700;10.770;2023-03-01T01:29:43;-1.20;99.90
7704;DHT22;3894;49.700;10.770;2023-03-01T01:32:09;-1.20;99.90
7704;DHT22;3894;49.700;10.770;2023-03-01T01:34:34;-1.20;99.90
7704;DHT22;3894;49.700;10.770;2023-03-01T01:37:00;-1.20;99.90
7704;DHT22;3894;49.700;10.770;2023-03-01T01:39:31;-1.30;99.90
7704;DHT22;3894;49.700;10.770;2023-03-01T01:41:56;-1.30;99.90
7704;DHT22;3894;49.700;10.770;2023-03-01T01:44:27;-1.30;99.90
7704;DHT22;3894;49.700;10.770;2023-03-01T01:46:58;-1.30;99.90
7704;DHT22;3894;49.700;10.770;2023-03-01T01:49:32;-1.40;99.90
7704;DHT22;3894;49.700;10.770;2023-03-01T01:57:16;-1.40;99.90
7704;DHT22;3894;49.700;10.770;2023-03-01T01:59:45;-1.40;99.90
7704;DHT22;3894;49.700;10.770;2023-03-01T02:02:14;-1.40;99.90
7704;DHT22;3894;49.700;10.770;2023-03-01T02:04:42;-1.40;99.90
7704;DHT22;3894;49.700;10.770;2023-03-01T02:07:17;-1.40;99.90
7704;DHT22;3894;49.700;10.770;2023-03-01T02:09:49;-1.40;99.90
7704;DHT22;3894;49.700;10.770;2023-03-01T02:12:18;-1.40;99.90
7704;DHT22;3894;49.700;10.770;2023-03-01T02:14:44;-1.40;99.90
7704;DHT22;3894;49.700;10.770;2023-03-01T02:17:11;-1.40;99.90
7704;DHT22;3894;49.700;10.770;2023-03-01T02:22:30;-1.50;99.90
7704;DHT22;3894;49.700;10.770;2023-03-01T02:30:19;-1.50;99.90
7704;DHT22;3894;49.700;10.770;2023-03-01T02:32:46;-1.50;99.90
7704;DHT22;3894;49.700;10.770;2023-03-01T02:35:20;-1.50;99.90
7704;DHT22;3894;49.700;10.770;2023-03-01T02:37:46;-1.50;99.90
7704;DHT22;3894;49.700;10.770;2023-03-01T02:40:17;-1.50;99.90
7704;DHT22;3894;49.700;10.770;2023-03-01T02:42:51;-1.60;99.90
7704;DHT22;3894;49.700;10.770;2023-03-01T02:45:17;-1.60;99.90
7704;DHT22;3894;49.700;10.770;2023-03-01T02:47:43;-1.60;99.90
7704;DHT22;3894;49.700;10.770;2023-03-01T02:50:22;-1.60;99.90
7704;DHT22;3894;49.700;10.770;2023-03-01T02:53:00;-1.60;99.90
7704;DHT22;3894;49.700;10.770;2023-03-01T02:55:27;-1.60;99.90
7704;DHT22;3894;49.700;10.770;2023-03-01T02:57:54;-1.60;99.90
7704;DHT22;3894;49.700;10.770;2023-03-01T03:00:26;-1.60;99.90
7704;DHT22;3894;49.700;10.770;2023-03-01T03:02:57;-1.60;99.90
7704;DHT22;3894;49.700;10.770;2023-03-01T03:05:30;-1.70;99.90
7704;DHT22;3894;49.700;10.770;2023-03-01T03:07:56;-1.60;99.90
7704;DHT22;3894;49.700;10.770;2023-03-01T03:10:28;-1.70;99.90
7704;DHT22;3894;49.700;10.770;2023-03-01T03:13:05;-1.70;99.90
7704;DHT22;3894;49.700;10.770;2023-03-01T03:15:31;-1.70;99.90
7704;DHT22;3894;49.700;10.770;2023-03-01T03:18:01;-1.70;99.90
7704;DHT22;3894;49.700;10.770;2023-03-01T03:20:28;-1.70;99.90
7704;DHT22;3894;49.700;10.770;2023-03-01T03:23:00;-1.70;99.90
7704;DHT22;3894;49.700;10.770;2023-03-01T03:25:28;-1.70;99.90
7704;DHT22;3894;49.700;10.770;2023-03-01T03:27:55;-1.70;99.90
7704;DHT22;3894;49.700;10.770;2023-03-01T03:30:31;-1.70;99.90
7704;DHT22;3894;49.700;10.770;2023-03-01T03:32:58;-1.80;99.90
7704;DHT22;3894;49.700;10.770;2023-03-01T03:35:25;-1.80;99.90
7704;DHT22;3894;49.700;10.770;2023-03-01T03:37:55;-1.80;99.90
7704;DHT22;3894;49.700;10.770;2023-03-01T03:40:38;-1.80;99.90
7704;DHT22;3894;49.700;10.770;2023-03-01T03:43:06;-1.80;99.90
7704;DHT22;3894;49.700;10.770;2023-03-01T03:45:36;-1.80;99.90
7704;DHT22;3894;49.700;10.770;2023-03-01T03:48:03;-1.80;99.90
7704;DHT22;3894;49.700;10.770;2023-03-01T03:50:32;-1.90;99.90
7704;DHT22;3894;49.700;10.770;2023-03-01T03:53:01;-1.90;99.90
7704;DHT22;3894;49.700;10.770;2023-03-01T03:55:30;-1.90;99.90
7704;DHT22;3894;49.700;10.770;2023-03-01T03:57:58;-1.90;99.90
7704;DHT22;3894;49.700;10.770;2023-03-01T04:00:28;-1.90;99.90
7704;DHT22;3894;49.700;10.770;2023-03-01T04:02:55;-1.90;99.90
7704;DHT22;3894;49.700;10.770;2023-03-01T04:05:22;-1.90;99.90
7704;DHT22;3894;49.700;10.770;2023-03-01T04:07:50;-1.90;99.90
7704;DHT22;3894;49.700;10.770;2023-03-01T04:10:29;-1.90;99.90
7704;DHT22;3894;49.700;10.770;2023-03-01T04:12:58;-2.00;99.90
7704;DHT22;3894;49.700;10.770;2023-03-01T04:15:24;-2.00;99.90
7704;DHT22;3894;49.700;10.770;2023-03-01T04:17:52;-2.00;99.90
7704;DHT22;3894;49.700;10.770;2023-03-01T04:20:29;-2.00;99.90
7704;DHT22;3894;49.700;10.770;2023-03-01T04:23:03;-2.00;99.90
7704;DHT22;3894;49.700;10.770;2023-03-01T04:25:44;-2.00;99.90
7704;DHT22;3894;49.700;10.770;2023-03-01T04:28:11;-2.00;99.90
7704;DHT22;3894;49.700;10.770;2023-03-01T04:30:37;-2.00;99.90
7704;DHT22;3894;49.700;10.770;2023-03-01T04:33:06;-2.00;99.90
7704;DHT22;3894;49.700;10.770;2023-03-01T04:35:32;-2.00;99.90
7704;DHT22;3894;49.700;10.770;2023-03-01T04:37:57;-2.00;99.90
7704;DHT22;3894;49.700;10.770;2023-03-01T04:40:23;-2.00;99.90
7704;DHT22;3894;49.700;10.770;2023-03-01T04:42:49;-2.00;99.90
7704;DHT22;3894;49.700;10.770;2023-03-01T04:45:14;-2.00;99.90
7704;DHT22;3894;49.700;10.770;2023-03-01T04:47:43;-2.00;99.90
7704;DHT22;3894;49.700;10.770;2023-03-01T04:50:14;-2.00;99.90
7704;DHT22;3894;49.700;10.770;2023-03-01T04:52:41;-2.00;99.90
7704;DHT22;3894;49.700;10.770;2023-03-01T04:55:07;-2.00;99.90
7704;DHT22;3894;49.700;10.770;2023-03-01T04:57:33;-2.00;99.90
7704;DHT22;3894;49.700;10.770;2023-03-01T05:00:06;-2.10;99.90
7704;DHT22;3894;49.700;10.770;2023-03-01T05:02:56;-2.10;99.90
7704;DHT22;3894;49.700;10.770;2023-03-01T05:05:28;-2.10;99.90
7704;DHT22;3894;49.700;10.770;2023-03-01T05:08:02;-2.10;99.90
7704;DHT22;3894;49.700;10.770;2023-03-01T05:10:29;-2.10;99.90
7704;DHT22;3894;49.700;10.770;2023-03-01T05:12:58;-2.10;99.90
7704;DHT22;3894;49.700;10.770;2023-03-01T05:15:24;-2.10;99.90
7704;DHT22;3894;49.700;10.770;2023-03-01T05:17:59;-2.10;99.90
7704;DHT22;3894;49.700;10.770;2023-03-01T05:20:26;-2.10;99.90
7704;DHT22;3894;49.700;10.770;2023-03-01T05:22:58;-2.10;99.90
7704;DHT22;3894;49.700;10.770;2023-03-01T05:25:24;-2.10;99.90
7704;DHT22;3894;49.700;10.770;2023-03-01T05:27:50;-2.10;99.90
7704;DHT22;3894;49.700;10.770;2023-03-01T05:30:17;-2.10;99.90
7704;DHT22;3894;49.700;10.770;2023-03-01T05:32:48;-2.10;99.90
7704;DHT22;3894;49.700;10.770;2023-03-01T05:35:16;-2.10;99.90
7704;DHT22;3894;49.700;10.770;2023-03-01T05:37:46;-2.20;99.90
7704;DHT22;3894;49.700;10.770;2023-03-01T05:40:15;-2.20;99.90
7704;DHT22;3894;49.700;10.770;2023-03-01T05:42:48;-2.20;99.90
7704;DHT22;3894;49.700;10.770;2023-03-01T05:45:15;-2.20;99.90
7704;DHT22;3894;49.700;10.770;2023-03-01T05:47:43;-2.20;99.90
7704;DHT22;3894;49.700;10.770;2023-03-01T05:50:17;-2.20;99.90
7704;DHT22;3894;49.700;10.770;2023-03-01T05:52:51;-2.20;99.90
7704;DHT22;3894;49.700;10.770;2023-03-01T05:55:21;-2.20;99.90
7704;DHT22;3894;49.700;10.770;2023-03-01T05:57:47;-2.20;99.90
7704;DHT22;3894;49.700;10.770;2023-03-01T06:00:18;-2.20;99.90
7704;DHT22;3894;49.700;10.770;2023-03-01T06:02:46;-2.20;99.90
7704;DHT22;3894;49.700;10.770;2023-03-01T06:05:15;-2.20;99.90
7704;DHT22;3894;49.700;10.770;2023-03-01T06:07:43;-2.20;99.90
7704;DHT22;3894;49.700;10.770;2023-03-01T06:10:14;-2.20;99.90
7704;DHT22;3894;49.700;10.770;2023-03-01T06:12:41;-2.20;99.90
7704;DHT22;3894;49.700;10.770;2023-03-01T06:15:09;-2.20;99.90
7704;DHT22;3894;49.700;10.770;2023-03-01T06:17:39;-2.20;99.90
7704;DHT22;3894;49.700;10.770;2023-03-01T06:20:08;-2.20;99.90
7704;DHT22;3894;49.700;10.770;2023-03-01T06:22:33;-2.20;99.90
7704;DHT22;3894;49.700;10.770;2023-03-01T06:25:13;-2.20;99.90
7704;DHT22;3894;49.700;10.770;2023-03-01T06:27:47;-2.20;99.90
7704;DHT22;3894;49.700;10.770;2023-03-01T06:30:18;-2.10;99.90
7704;DHT22;3894;49.700;10.770;2023-03-01T06:32:44;-2.10;99.90
7704;DHT22;3894;49.700;10.770;2023-03-01T06:35:13;-2.10;99.90
7704;DHT22;3894;49.700;10.770;2023-03-01T06:37:43;-2.10;99.90
7704;DHT22;3894;49.700;10.770;2023-03-01T06:40:11;-2.00;99.90
7704;DHT22;3894;49.700;10.770;2023-03-01T06:42:47;-2.00;99.90
7704;DHT22;3894;49.700;10.770;2023-03-01T06:45:13;-1.90;99.90
7704;DHT22;3894;49.700;10.770;2023-03-01T06:47:42;-1.90;99.90
7704;DHT22;3894;49.700;10.770;2023-03-01T06:50:07;-1.80;99.90
7704;DHT22;3894;49.700;10.770;2023-03-01T06:52:33;-1.80;99.90
7704;DHT22;3894;49.700;10.770;2023-03-01T06:55:00;-1.80;99.90
7704;DHT22;3894;49.700;10.770;2023-03-01T06:57:34;-1.70;99.90
7704;DHT22;3894;49.700;10.770;2023-03-01T07:00:00;-1.70;99.90
7704;DHT22;3894;49.700;10.770;2023-03-01T07:02:28;-1.60;99.90
7704;DHT22;3894;49.700;10.770;2023-03-01T07:04:54;-1.60;99.90
7704;DHT22;3894;49.700;10.770;2023-03-01T07:07:19;-1.50;99.90
7704;DHT22;3894;49.700;10.770;2023-03-01T07:09:46;-1.50;99.90
7704;DHT22;3894;49.700;10.770;2023-03-01T07:12:11;-1.40;99.90
7704;DHT22;3894;49.700;10.770;2023-03-01T07:14:39;-1.40;99.90
7704;DHT22;3894;49.700;10.770;2023-03-01T07:17:08;-1.30;99.90
7704;DHT22;3894;49.700;10.770;2023-03-01T07:19:33;-1.30;99.90
7704;DHT22;3894;49.700;10.770;2023-03-01T07:21:59;-1.20;99.90
7704;DHT22;3894;49.700;10.770;2023-03-01T07:24:25;-1.10;99.90
7704;DHT22;3894;49.700;10.770;2023-03-01T07:26:53;-1.10;99.90
7704;DHT22;3894;49.700;10.770;2023-03-01T07:29:19;-1.00;99.90
7704;DHT22;3894;49.700;10.770;2023-03-01T07:31:45;-0.90;99.90
7704;DHT22;3894;49.700;10.770;2023-03-01T07:34:19;-0.80;99.90
7704;DHT22;3894;49.700;10.770;2023-03-01T07:36:44;-0.70;99.90
7704;DHT22;3894;49.700;10.770;2023-03-01T07:39:10;-0.50;99.90
7704;DHT22;3894;49.700;10.770;2023-03-01T07:41:39;-0.40;99.90
7704;DHT22;3894;49.700;10.770;2023-03-01T07:44:05;-0.30;99.90
7704;DHT22;3894;49.700;10.770;2023-03-01T07:46:30;-0.20;99.90
7704;DHT22;3894;49.700;10.770;2023-03-01T07:48:56;-0.10;99.90
7704;DHT22;3894;49.700;10.770;2023-03-01T07:51:23;0.00;99.90
7704;DHT22;3894;49.700;10.770;2023-03-01T07:53:49;0.10;99.90
7704;DHT22;3894;49.700;10.770;2023-03-01T07:56:17;0.30;99.90
7704;DHT22;3894;49.700;10.770;2023-03-01T07:58:44;0.50;99.90
7704;DHT22;3894;49.700;10.770;2023-03-01T08:01:12;0.60;99.90
7704;DHT22;3894;49.700;10.770;2023-03-01T08:03:44;0.70;99.90
7704;DHT22;3894;49.700;10.770;2023-03-01T08:06:14;0.90;99.90
7704;DHT22;3894;49.700;10.770;2023-03-01T08:08:44;0.90;99.90
7704;DHT22;3894;49.700;10.770;2023-03-01T08:11:14;1.00;99.90
7704;DHT22;3894;49.700;10.770;2023-03-01T08:13:43;1.10;99.90
7704;DHT22;3894;49.700;10.770;2023-03-01T08:16:17;1.30;99.90
7704;DHT22;3894;49.700;10.770;2023-03-01T08:18:43;1.40;99.90
7704;DHT22;3894;49.700;10.770;2023-03-01T08:21:16;1.50;99.90
7704;DHT22;3894;49.700;10.770;2023-03-01T08:23:45;1.60;99.90
7704;DHT22;3894;49.700;10.770;2023-03-01T08:26:16;1.70;99.90
7704;DHT22;3894;49.700;10.770;2023-03-01T08:28:42;1.80;99.90
7704;DHT22;3894;49.700;10.770;2023-03-01T08:31:15;1.90;99.90
7704;DHT22;3894;49.700;10.770;2023-03-01T08:33:41;2.00;99.90
7704;DHT22;3894;49.700;10.770;2023-03-01T08:36:06;2.10;99.90
7704;DHT22;3894;49.700;10.770;2023-03-01T08:38:35;2.20;99.90
7704;DHT22;3894;49.700;10.770;2023-03-01T08:41:07;2.30;99.90
7704;DHT22;3894;49.700;10.770;2023-03-01T08:43:32;2.40;99.90
7704;DHT22;3894;49.700;10.770;2023-03-01T08:45:58;2.50;99.90
7704;DHT22;3894;49.700;10.770;2023-03-01T08:48:24;2.50;99.90
7704;DHT22;3894;49.700;10.770;2023-03-01T08:50:50;2.60;99.90
7704;DHT22;3894;49.700;10.770;2023-03-01T08:53:19;2.70;99.90
7704;DHT22;3894;49.700;10.770;2023-03-01T08:55:45;2.70;99.90
7704;DHT22;3894;49.700;10.770;2023-03-01T08:58:10;2.80;99.90
7704;DHT22;3894;49.700;10.770;2023-03-01T09:00:36;2.90;99.90
7704;DHT22;3894;49.700;10.770;2023-03-01T09:03:05;2.90;99.90
7704;DHT22;3894;49.700;10.770;2023-03-01T09:05:36;3.00;99.90
7704;DHT22;3894;49.700;10.770;2023-03-01T09:08:02;3.00;99.90
7704;DHT22;3894;49.700;10.770;2023-03-01T09:10:27;3.10;99.90
7704;DHT22;3894;49.700;10.770;2023-03-01T09:12:53;3.20;99.90
7704;DHT22;3894;49.700;10.770;2023-03-01T09:15:18;3.20;99.90
7704;DHT22;3894;49.700;10.770;2023-03-01T09:17:47;3.30;99.90
7704;DHT22;3894;49.700;10.770;2023-03-01T09:20:12;3.40;99.90
7704;DHT22;3894;49.700;10.770;2023-03-01T09:22:38;3.50;99.90
7704;DHT22;3894;49.700;10.770;2023-03-01T09:25:04;3.60;99.90
7704;DHT22;3894;49.700;10.770;2023-03-01T09:27:32;3.60;99.90
7704;DHT22;3894;49.700;10.770;2023-03-01T09:29:58;3.80;99.90
7704;DHT22;3894;49.700;10.770;2023-03-01T09:32:23;3.90;99.90
7704;DHT22;3894;49.700;10.770;2023-03-01T09:34:49;4.00;99.90
7704;DHT22;3894;49.700;10.770;2023-03-01T09:37:29;4.00;99.90
7704;DHT22;3894;49.700;10.770;2023-03-01T09:39:54;3.90;99.90
7704;DHT22;3894;49.700;10.770;2023-03-01T09:42:20;3.90;99.90
7704;DHT22;3894;49.700;10.770;2023-03-01T09:44:59;4.00;99.90
7704;DHT22;3894;49.700;10.770;2023-03-01T09:47:33;4.10;99.90
7704;DHT22;3894;49.700;10.770;2023-03-01T09:52:54;4.20;99.90
7704;DHT22;3894;49.700;10.770;2023-03-01T09:55:45;4.20;99.90
7704;DHT22;3894;49.700;10.770;2023-03-01T10:01:36;4.20;99.90
7704;DHT22;3894;49.700;10.770;2023-03-01T10:04:32;4.30;99.90
7704;DHT22;3894;49.700;10.770;2023-03-01T10:09:45;4.40;99.90
7704;DHT22;3894;49.700;10.770;2023-03-01T10:12:17;4.50;99.90
7704;DHT22;3894;49.700;10.770;2023-03-01T10:14:51;4.50;99.90
7704;DHT22;3894;49.700;10.770;2023-03-01T10:17:36;4.60;99.90
7704;DHT22;3894;49.700;10.770;2023-03-01T10:22:43;5.00;99.90
7704;DHT22;3894;49.700;10.770;2023-03-01T10:25:15;5.10;99.90
7704;DHT22;3894;49.700;10.770;2023-03-01T10:27:53;5.10;99.90
7704;DHT22;3894;49.700;10.770;2023-03-01T10:30:34;5.20;99.90
7704;DHT22;3894;49.700;10.770;2023-03-01T10:33:16;5.20;99.90
7704;DHT22;3894;49.700;10.770;2023-03-01T10:35:45;5.10;99.90
7704;DHT22;3894;49.700;10.770;2023-03-01T10:38:16;5.10;99.90
7704;DHT22;3894;49.700;10.770;2023-03-01T10:41:00;5.20;99.90
7704;DHT22;3894;49.700;10.770;2023-03-01T10:43:47;5.30;99.90
7704;DHT22;3894;49.700;10.770;2023-03-01T10:46:27;5.40;99.90
7704;DHT22;3894;49.700;10.770;2023-03-01T10:49:07;5.50;99.90
7704;DHT22;3894;49.700;10.770;2023-03-01T10:51:38;5.50;99.90
7704;DHT22;3894;49.700;10.770;2023-03-01T10:54:25;5.60;99.90
7704;DHT22;3894;49.700;10.770;2023-03-01T10:57:04;5.60;99.90
7704;DHT22;3894;49.700;10.770;2023-03-01T10:59:33;5.70;99.90
7704;DHT22;3894;49.700;10.770;2023-03-01T11:02:20;5.80;99.90
7704;DHT22;3894;49.700;10.770;2023-03-01T11:05:21;6.00;99.90
7704;DHT22;3894;49.700;10.770;2023-03-01T11:14:13;6.30;99.90
7704;DHT22;3894;49.700;10.770;2023-03-01T11:20:17;6.30;99.90
7704;DHT22;3894;49.700;10.770;2023-03-01T11:22:54;6.30;99.90
7704;DHT22;3894;49.700;10.770;2023-03-01T11:25:31;6.40;99.90
7704;DHT22;3894;49.700;10.770;2023-03-01T11:28:00;6.40;99.90
7704;DHT22;3894;49.700;10.770;2023-03-01T11:31:00;6.40;99.90
7704;DHT22;3894;49.700;10.770;2023-03-01T11:38:53;6.40;99.90
7704;DHT22;3894;49.700;10.770;2023-03-01T11:41:30;6.50;99.90
7704;DHT22;3894;49.700;10.770;2023-03-01T11:44:22;6.50;99.90
7704;DHT22;3894;49.700;10.770;2023-03-01T11:50:48;6.60;99.90
7704;DHT22;3894;49.700;10.770;2023-03-01T11:56:40;6.70;99.90
7704;DHT22;3894;49.700;10.770;2023-03-01T12:33:34;7.30;99.90
7704;DHT22;3894;49.700;10.770;2023-03-01T12:39:19;7.30;99.90
7704;DHT22;3894;49.700;10.770;2023-03-01T12:47:17;7.60;99.90
7704;DHT22;3894;49.700;10.770;2023-03-01T12:49:45;7.60;99.90
7704;DHT22;3894;49.700;10.770;2023-03-01T12:52:51;7.60;99.90
7704;DHT22;3894;49.700;10.770;2023-03-01T12:55:31;7.60;99.90
7704;DHT22;3894;49.700;10.770;2023-03-01T12:58:22;7.60;99.90
7704;DHT22;3894;49.700;10.770;2023-03-01T13:09:44;7.50;99.90
7704;DHT22;3894;49.700;10.770;2023-03-01T13:15:29;7.50;99.90
7704;DHT22;3894;49.700;10.770;2023-03-01T13:17:59;7.60;99.90
7704;DHT22;3894;49.700;10.770;2023-03-01T13:20:46;7.70;99.90
7704;DHT22;3894;49.700;10.770;2023-03-01T14:04:56;7.50;99.90
7704;DHT22;3894;49.700;10.770;2023-03-01T14:07:23;7.50;99.90
7704;DHT22;3894;49.700;10.770;2023-03-01T14:10:15;7.40;99.90
7704;DHT22;3894;49.700;10.770;2023-03-01T14:12:54;7.40;99.90
7704;DHT22;3894;49.700;10.770;2023-03-01T14:15:27;7.40;99.90
7704;DHT22;3894;49.700;10.770;2023-03-01T14:18:20;7.40;99.90
7704;DHT22;3894;49.700;10.770;2023-03-01T14:20:46;7.40;99.90
7704;DHT22;3894;49.700;10.770;2023-03-01T14:23:23;7.40;99.90
7704;DHT22;3894;49.700;10.770;2023-03-01T14:25:51;7.30;99.90
7704;DHT22;3894;49.700;10.770;2023-03-01T14:28:28;7.30;99.90
7704;DHT22;3894;49.700;10.770;2023-03-01T14:30:57;7.30;99.90
7704;DHT22;3894;49.700;10.770;2023-03-01T15:53:34;6.80;99.90
7704;DHT22;3894;49.700;10.770;2023-03-01T15:56:00;6.80;99.90
7704;DHT22;3894;49.700;10.770;2023-03-01T15:58:26;6.70;99.90
7704;DHT22;3894;49.700;10.770;2023-03-01T16:00:52;6.70;99.90
7704;DHT22;3894;49.700;10.770;2023-03-01T16:16:18;6.40;99.90
7704;DHT22;3894;49.700;10.770;2023-03-01T16:18:45;6.40;99.90
7704;DHT22;3894;49.700;10.770;2023-03-01T16:21:18;6.30;99.90
7704;DHT22;3894;49.700;10.770;2023-03-01T16:23:45;6.30;99.90
7704;DHT22;3894;49.700;10.770;2023-03-01T16:26:11;6.20;99.90
7704;DHT22;3894;49.700;10.770;2023-03-01T16:28:38;6.10;99.90
7704;DHT22;3894;49.700;10.770;2023-03-01T16:31:04;6.10;99.90
7704;DHT22;3894;49.700;10.770;2023-03-01T16:33:31;6.00;99.90
7704;DHT22;3894;49.700;10.770;2023-03-01T16:35:56;6.00;99.90
7704;DHT22;3894;49.700;10.770;2023-03-01T16:38:23;5.90;99.90
7704;DHT22;3894;49.700;10.770;2023-03-01T16:40:50;5.90;99.90
7704;DHT22;3894;49.700;10.770;2023-03-01T16:43:16;5.80;99.90
7704;DHT22;3894;49.700;10.770;2023-03-01T16:45:42;5.70;99.90
7704;DHT22;3894;49.700;10.770;2023-03-01T16:48:10;5.70;99.90
7704;DHT22;3894;49.700;10.770;2023-03-01T16:50:35;5.60;99.90
7704;DHT22;3894;49.700;10.770;2023-03-01T16:53:01;5.60;99.90
7704;DHT22;3894;49.700;10.770;2023-03-01T16:55:27;5.50;99.90
7704;DHT22;3894;49.700;10.770;2023-03-01T16:57:53;5.50;99.90
7704;DHT22;3894;49.700;10.770;2023-03-01T17:00:19;5.40;99.90
7704;DHT22;3894;49.700;10.770;2023-03-01T17:02:45;5.30;99.90
7704;DHT22;3894;49.700;10.770;2023-03-01T17:05:10;5.30;99.90
7704;DHT22;3894;49.700;10.770;2023-03-01T17:07:37;5.20;99.90
7704;DHT22;3894;49.700;10.770;2023-03-01T17:10:08;5.20;99.90
7704;DHT22;3894;49.700;10.770;2023-03-01T17:12:37;5.10;99.90
7704;DHT22;3894;49.700;10.770;2023-03-01T17:15:05;5.00;99.90
7704;DHT22;3894;49.700;10.770;2023-03-01T17:17:31;5.00;99.90
7704;DHT22;3894;49.700;10.770;2023-03-01T17:19:57;4.90;99.90
7704;DHT22;3894;49.700;10.770;2023-03-01T17:22:22;4.80;99.90
7704;DHT22;3894;49.700;10.770;2023-03-01T17:24:48;4.80;99.90
7704;DHT22;3894;49.700;10.770;2023-03-01T17:27:16;4.70;99.90
7704;DHT22;3894;49.700;10.770;2023-03-01T17:29:42;4.70;99.90
7704;DHT22;3894;49.700;10.770;2023-03-01T17:32:09;4.60;99.90
7704;DHT22;3894;49.700;10.770;2023-03-01T17:34:34;4.60;99.90
7704;DHT22;3894;49.700;10.770;2023-03-01T17:37:08;4.50;99.90
7704;DHT22;3894;49.700;10.770;2023-03-01T17:39:39;4.50;99.90
7704;DHT22;3894;49.700;10.770;2023-03-01T17:42:07;4.40;99.90
7704;DHT22;3894;49.700;10.770;2023-03-01T17:44:37;4.40;99.90
7704;DHT22;3894;49.700;10.770;2023-03-01T17:47:04;4.30;99.90
7704;DHT22;3894;49.700;10.770;2023-03-01T17:49:30;4.20;99.90
7704;DHT22;3894;49.700;10.770;2023-03-01T17:51:56;4.20;99.90
7704;DHT22;3894;49.700;10.770;2023-03-01T17:54:21;4.20;99.90
7704;DHT22;3894;49.700;10.770;2023-03-01T17:56:48;4.10;99.90
7704;DHT22;3894;49.700;10.770;2023-03-01T17:59:13;4.10;99.90
7704;DHT22;3894;49.700;10.770;2023-03-01T18:01:42;4.10;99.90
7704;DHT22;3894;49.700;10.770;2023-03-01T18:04:07;4.00;99.90
7704;DHT22;3894;49.700;10.770;2023-03-01T18:06:35;4.00;99.90
7704;DHT22;3894;49.700;10.770;2023-03-01T18:09:01;3.90;99.90
7704;DHT22;3894;49.700;10.770;2023-03-01T18:11:26;3.90;99.90
7704;DHT22;3894;49.700;10.770;2023-03-01T18:13:53;3.90;99.90
7704;DHT22;3894;49.700;10.770;2023-03-01T18:16:20;3.80;99.90
7704;DHT22;3894;49.700;10.770;2023-03-01T18:18:51;3.80;99.90
7704;DHT22;3894;49.700;10.770;2023-03-01T18:21:17;3.80;99.90
7704;DHT22;3894;49.700;10.770;2023-03-01T18:23:42;3.70;99.90
7704;DHT22;3894;49.700;10.770;2023-03-01T18:26:10;3.70;99.90
7704;DHT22;3894;49.700;10.770;2023-03-01T18:28:36;3.60;99.90
7704;DHT22;3894;49.700;10.770;2023-03-01T18:31:06;3.60;99.90
7704;DHT22;3894;49.700;10.770;2023-03-01T18:33:38;3.50;99.90
7704;DHT22;3894;49.700;10.770;2023-03-01T18:36:05;3.50;99.90
7704;DHT22;3894;49.700;10.770;2023-03-01T18:38:31;3.40;99.90
7704;DHT22;3894;49.700;10.770;2023-03-01T18:40:57;3.40;99.90
7704;DHT22;3894;49.700;10.770;2023-03-01T18:43:23;3.40;99.90
7704;DHT22;3894;49.700;10.770;2023-03-01T18:45:56;3.30;99.90
7704;DHT22;3894;49.700;10.770;2023-03-01T18:48:22;3.30;99.90
7704;DHT22;3894;49.700;10.770;2023-03-01T18:50:48;3.30;99.90
7704;DHT22;3894;49.700;10.770;2023-03-01T18:53:13;3.30;99.90
7704;DHT22;3894;49.700;10.770;2023-03-01T18:55:39;3.20;99.90
7704;DHT22;3894;49.700;10.770;2023-03-01T18:58:05;3.20;99.90
7704;DHT22;3894;49.700;10.770;2023-03-01T19:00:32;3.20;99.90
7704;DHT22;3894;49.700;10.770;2023-03-01T19:02:58;3.20;99.90
7704;DHT22;3894;49.700;10.770;2023-03-01T19:05:26;3.10;99.90
7704;DHT22;3894;49.700;10.770;2023-03-01T19:07:51;3.10;99.90
7704;DHT22;3894;49.700;10.770;2023-03-01T19:10:17;3.10;99.90
7704;DHT22;3894;49.700;10.770;2023-03-01T19:12:43;3.00;99.90
7704;DHT22;3894;49.700;10.770;2023-03-01T19:15:09;3.00;99.90
7704;DHT22;3894;49.700;10.770;2023-03-01T19:17:34;3.00;99.90
7704;DHT22;3894;49.700;10.770;2023-03-01T19:20:00;2.90;99.90
7704;DHT22;3894;49.700;10.770;2023-03-01T19:22:26;2.90;99.90
7704;DHT22;3894;49.700;10.770;2023-03-01T19:24:52;2.90;99.90
7704;DHT22;3894;49.700;10.770;2023-03-01T19:27:18;2.90;99.90
7704;DHT22;3894;49.700;10.770;2023-03-01T19:29:43;2.90;99.90
7704;DHT22;3894;49.700;10.770;2023-03-01T19:32:09;2.80;99.90
7704;DHT22;3894;49.700;10.770;2023-03-01T19:34:35;2.80;99.90
7704;DHT22;3894;49.700;10.770;2023-03-01T19:37:03;2.80;99.90
7704;DHT22;3894;49.700;10.770;2023-03-01T19:39:28;2.70;99.90
7704;DHT22;3894;49.700;10.770;2023-03-01T19:41:55;2.70;99.90
7704;DHT22;3894;49.700;10.770;2023-03-01T19:44:21;2.70;99.90
7704;DHT22;3894;49.700;10.770;2023-03-01T19:46:53;2.60;99.90
7704;DHT22;3894;49.700;10.770;2023-03-01T19:49:18;2.60;99.90
7704;DHT22;3894;49.700;10.770;2023-03-01T19:51:44;2.60;99.90
7704;DHT22;3894;49.700;10.770;2023-03-01T19:54:10;2.50;99.90
7704;DHT22;3894;49.700;10.770;2023-03-01T19:56:37;2.50;99.90
7704;DHT22;3894;49.700;10.770;2023-03-01T19:59:03;2.50;99.90
7704;DHT22;3894;49.700;10.770;2023-03-01T20:01:29;2.50;99.90
7704;DHT22;3894;49.700;10.770;2023-03-01T20:03:57;2.50;99.90
7704;DHT22;3894;49.700;10.770;2023-03-01T20:06:23;2.40;99.90
7704;DHT22;3894;49.700;10.770;2023-03-01T20:08:50;2.40;99.90